sensor_id;sensor_type;location;lat;lon;timestamp;pressure;altitude;pressure_sealevel;temperature
5571;BMP180;2808;51.240;6.794;2023-06-24T00:02:26;101983.00;;;20.30
5571;BMP180;2808;51.240;6.794;2023-06-24T00:04:53;101979.00;;;20.20
5571;BMP180;2808;51.240;6.794;2023-06-24T00:07:20;101974.00;;;20.20
5571;BMP180;2808;51.240;6.794;2023-06-24T00:09:48;101982.00;;;20.20
5571;BMP180;2808;51.240;6.794;2023-06-24T00:12:16;101984.00;;;20.20
5571;BMP180;2808;51.240;6.794;2023-06-24T00:14:45;101988.00;;;20.20
5571;BMP180;2808;51.240;6.794;2023-06-24T00:17:16;101980.00;;;20.20
5571;BMP180;2808;51.240;6.794;2023-06-24T00:19:43;101981.00;;;20.20
5571;BMP180;2808;51.240;6.794;2023-06-24T00:22:11;101982.00;;;20.10
5571;BMP180;2808;51.240;6.794;2023-06-24T00:24:38;101972.00;;;20.00
5571;BMP180;2808;51.240;6.794;2023-06-24T00:27:06;101969.00;;;20.00
5571;BMP180;2808;51.240;6.794;2023-06-24T00:29:34;101972.00;;;20.00
5571;BMP180;2808;51.240;6.794;2023-06-24T00:32:01;101967.00;;;19.90
5571;BMP180;2808;51.240;6.794;2023-06-24T00:34:30;101967.00;;;19.90
5571;BMP180;2808;51.240;6.794;2023-06-24T00:36:57;101972.00;;;19.90
5571;BMP180;2808;51.240;6.794;2023-06-24T00:39:25;101965.00;;;19.80
5571;BMP180;2808;51.240;6.794;2023-06-24T00:41:52;101976.00;;;19.80
5571;BMP180;2808;51.240;6.794;2023-06-24T00:44:20;101969.00;;;19.80
5571;BMP180;2808;51.240;6.794;2023-06-24T00:46:47;101972.00;;;19.80
5571;BMP180;2808;51.240;6.794;2023-06-24T00:49:15;101970.00;;;19.80
5571;BMP180;2808;51.240;6.794;2023-06-24T00:51:45;101975.00;;;19.80
5571;BMP180;2808;51.240;6.794;2023-06-24T00:54:16;101972.00;;;19.80
5571;BMP180;2808;51.240;6.794;2023-06-24T00:56:44;101978.00;;;19.80
5571;BMP180;2808;51.240;6.794;2023-06-24T00:59:15;101970.00;;;19.70
5571;BMP180;2808;51.240;6.794;2023-06-24T01:01:42;101975.00;;;19.70
5571;BMP180;2808;51.240;6.794;2023-06-24T01:04:11;101977.00;;;19.60
5571;BMP180;2808;51.240;6.794;2023-06-24T01:06:38;101970.00;;;19.60
5571;BMP180;2808;51.240;6.794;2023-06-24T01:09:12;101979.00;;;19.60
5571;BMP180;2808;51.240;6.794;2023-06-24T01:11:39;101964.00;;;19.60
5571;BMP180;2808;51.240;6.794;2023-06-24T01:14:07;101974.00;;;19.60
5571;BMP180;2808;51.240;6.794;2023-06-24T01:16:40;101971.00;;;19.60
5571;BMP180;2808;51.240;6.794;2023-06-24T01:19:24;101970.00;;;19.60
5571;BMP180;2808;51.240;6.794;2023-06-24T01:22:04;101974.00;;;19.60
5571;BMP180;2808;51.240;6.794;2023-06-24T01:24:51;101963.00;;;19.60
5571;BMP180;2808;51.240;6.794;2023-06-24T01:27:46;101966.00;;;19.50
5571;BMP180;2808;51.240;6.794;2023-06-24T01:30:38;101968.00;;;19.50
5571;BMP180;2808;51.240;6.794;2023-06-24T01:33:15;101969.00;;;19.50
5571;BMP180;2808;51.240;6.794;2023-06-24T01:35:45;101964.00;;;19.50
5571;BMP180;2808;51.240;6.794;2023-06-24T01:38:19;101975.00;;;19.40
5571;BMP180;2808;51.240;6.794;2023-06-24T01:40:49;101974.00;;;19.40
5571;BMP180;2808;51.240;6.794;2023-06-24T01:43:18;101968.00;;;19.40
5571;BMP180;2808;51.240;6.794;2023-06-24T01:45:50;101969.00;;;19.40
5571;BMP180;2808;51.240;6.794;2023-06-24T01:48:24;101964.00;;;19.30
5571;BMP180;2808;51.240;6.794;2023-06-24T01:50:57;101957.00;;;19.40
5571;BMP180;2808;51.240;6.794;2023-06-24T01:53:26;101953.00;;;19.30
5571;BMP180;2808;51.240;6.794;2023-06-24T01:55:55;101947.00;;;19.30
5571;BMP180;2808;51.240;6.794;2023-06-24T01:58:24;101951.00;;;19.30
5571;BMP180;2808;51.240;6.794;2023-06-24T02:00:52;101952.00;;;19.30
5571;BMP180;2808;51.240;6.794;2023-06-24T02:03:22;101944.00;;;19.20
5571;BMP180;2808;51.240;6.794;2023-06-24T02:05:51;101942.00;;;19.20
5571;BMP180;2808;51.240;6.794;2023-06-24T02:08:21;101942.00;;;19.10
5571;BMP180;2808;51.240;6.794;2023-06-24T02:10:50;101946.00;;;19.10
5571;BMP180;2808;51.240;6.794;2023-06-24T02:13:18;101939.00;;;19.20
5571;BMP180;2808;51.240;6.794;2023-06-24T02:15:48;101945.00;;;19.10
5571;BMP180;2808;51.240;6.794;2023-06-24T02:18:17;101948.00;;;19.10
5571;BMP180;2808;51.240;6.794;2023-06-24T02:20:47;101951.00;;;19.10
5571;BMP180;2808;51.240;6.794;2023-06-24T02:23:15;101947.00;;;19.00
5571;BMP180;2808;51.240;6.794;2023-06-24T02:25:43;101943.00;;;19.00
5571;BMP180;2808;51.240;6.794;2023-06-24T02:28:11;101942.00;;;19.00
5571;BMP180;2808;51.240;6.794;2023-06-24T02:30:39;101946.00;;;18.90
5571;BMP180;2808;51.240;6.794;2023-06-24T02:33:06;101946.00;;;18.90
5571;BMP180;2808;51.240;6.794;2023-06-24T02:35:35;101947.00;;;18.90
5571;BMP180;2808;51.240;6.794;2023-06-24T02:38:04;101954.00;;;18.90
5571;BMP180;2808;51.240;6.794;2023-06-24T02:40:31;101935.00;;;18.90
5571;BMP180;2808;51.240;6.794;2023-06-24T02:43:00;101939.00;;;18.80
5571;BMP180;2808;51.240;6.794;2023-06-24T02:45:28;101939.00;;;18.80
5571;BMP180;2808;51.240;6.794;2023-06-24T02:47:56;101938.00;;;18.70
5571;BMP180;2808;51.240;6.794;2023-06-24T02:50:24;101937.00;;;18.70
5571;BMP180;2808;51.240;6.794;2023-06-24T02:52:52;101940.00;;;18.70
5571;BMP180;2808;51.240;6.794;2023-06-24T02:55:22;101945.00;;;18.70
5571;BMP180;2808;51.240;6.794;2023-06-24T02:57:50;101942.00;;;18.70
5571;BMP180;2808;51.240;6.794;2023-06-24T03:00:19;101950.00;;;18.70
5571;BMP180;2808;51.240;6.794;2023-06-24T03:02:47;101950.00;;;18.70
5571;BMP180;2808;51.240;6.794;2023-06-24T03:05:16;101952.00;;;18.70
5571;BMP180;2808;51.240;6.794;2023-06-24T03:07:45;101952.00;;;18.70
5571;BMP180;2808;51.240;6.794;2023-06-24T03:10:13;101955.00;;;18.70
5571;BMP180;2808;51.240;6.794;2023-06-24T03:12:42;101962.00;;;18.80
5571;BMP180;2808;51.240;6.794;2023-06-24T03:15:10;101958.00;;;18.80
5571;BMP180;2808;51.240;6.794;2023-06-24T03:17:37;101958.00;;;18.70
5571;BMP180;2808;51.240;6.794;2023-06-24T03:20:06;101957.00;;;18.70
5571;BMP180;2808;51.240;6.794;2023-06-24T03:22:34;101956.00;;;18.70
5571;BMP180;2808;51.240;6.794;2023-06-24T03:25:01;101954.00;;;18.70
5571;BMP180;2808;51.240;6.794;2023-06-24T03:27:29;101962.00;;;18.70
5571;BMP180;2808;51.240;6.794;2023-06-24T03:29:58;101959.00;;;18.70
5571;BMP180;2808;51.240;6.794;2023-06-24T03:32:26;101957.00;;;18.70
5571;BMP180;2808;51.240;6.794;2023-06-24T03:34:53;101951.00;;;18.70
5571;BMP180;2808;51.240;6.794;2023-06-24T03:37:20;101953.00;;;18.80
5571;BMP180;2808;51.240;6.794;2023-06-24T03:39:48;101952.00;;;18.80
5571;BMP180;2808;51.240;6.794;2023-06-24T03:42:15;101960.00;;;18.80
5571;BMP180;2808;51.240;6.794;2023-06-24T03:44:44;101960.00;;;18.80
5571;BMP180;2808;51.240;6.794;2023-06-24T03:47:13;101970.00;;;18.80
5571;BMP180;2808;51.240;6.794;2023-06-24T03:49:41;101972.00;;;18.80
5571;BMP180;2808;51.240;6.794;2023-06-24T03:52:09;101973.00;;;18.80
5571;BMP180;2808;51.240;6.794;2023-06-24T03:54:36;101979.00;;;18.80
5571;BMP180;2808;51.240;6.794;2023-06-24T03:57:05;101985.00;;;18.80
5571;BMP180;2808;51.240;6.794;2023-06-24T03:59:32;101991.00;;;18.90
5571;BMP180;2808;51.240;6.794;2023-06-24T04:02:00;101985.00;;;18.90
5571;BMP180;2808;51.240;6.794;2023-06-24T04:04:29;101988.00;;;18.90
5571;BMP180;2808;51.240;6.794;2023-06-24T04:06:56;101988.00;;;19.00
5571;BMP180;2808;51.240;6.794;2023-06-24T04:09:23;101992.00;;;19.10
5571;BMP180;2808;51.240;6.794;2023-06-24T04:11:51;101990.00;;;19.20
5571;BMP180;2808;51.240;6.794;2023-06-24T04:14:18;101988.00;;;19.30
5571;BMP180;2808;51.240;6.794;2023-06-24T04:16:45;102001.00;;;19.40
5571;BMP180;2808;51.240;6.794;2023-06-24T04:19:13;101995.00;;;19.40
5571;BMP180;2808;51.240;6.794;2023-06-24T04:21:41;101987.00;;;19.40
5571;BMP180;2808;51.240;6.794;2023-06-24T04:24:09;101990.00;;;19.50
5571;BMP180;2808;51.240;6.794;2023-06-24T04:26:36;101984.00;;;19.60
5571;BMP180;2808;51.240;6.794;2023-06-24T04:29:04;101983.00;;;19.80
5571;BMP180;2808;51.240;6.794;2023-06-24T04:31:31;101986.00;;;20.00
5571;BMP180;2808;51.240;6.794;2023-06-24T04:33:58;101989.00;;;20.20
5571;BMP180;2808;51.240;6.794;2023-06-24T04:36:28;101976.00;;;20.30
5571;BMP180;2808;51.240;6.794;2023-06-24T04:38:57;101989.00;;;20.50
5571;BMP180;2808;51.240;6.794;2023-06-24T04:41:24;101998.00;;;20.80
5571;BMP180;2808;51.240;6.794;2023-06-24T04:43:52;102000.00;;;21.10
5571;BMP180;2808;51.240;6.794;2023-06-24T04:46:19;101992.00;;;21.30
5571;BMP180;2808;51.240;6.794;2023-06-24T04:48:47;101990.00;;;21.60
5571;BMP180;2808;51.240;6.794;2023-06-24T04:51:15;101982.00;;;21.80
5571;BMP180;2808;51.240;6.794;2023-06-24T04:53:42;101986.00;;;22.10
5571;BMP180;2808;51.240;6.794;2023-06-24T04:56:11;101986.00;;;22.30
5571;BMP180;2808;51.240;6.794;2023-06-24T04:58:38;101981.00;;;22.70
5571;BMP180;2808;51.240;6.794;2023-06-24T05:01:06;101975.00;;;23.20
5571;BMP180;2808;51.240;6.794;2023-06-24T05:03:33;101975.00;;;23.50
5571;BMP180;2808;51.240;6.794;2023-06-24T05:06:01;101977.00;;;23.90
5571;BMP180;2808;51.240;6.794;2023-06-24T05:08:28;101976.00;;;24.10
5571;BMP180;2808;51.240;6.794;2023-06-24T05:10:55;101976.00;;;24.50
5571;BMP180;2808;51.240;6.794;2023-06-24T05:13:26;101973.00;;;25.10
5571;BMP180;2808;51.240;6.794;2023-06-24T05:15:54;101972.00;;;25.50
5571;BMP180;2808;51.240;6.794;2023-06-24T05:18:21;101968.00;;;25.80
5571;BMP180;2808;51.240;6.794;2023-06-24T05:20:49;101975.00;;;25.70
5571;BMP180;2808;51.240;6.794;2023-06-24T05:23:16;101962.00;;;25.70
5571;BMP180;2808;51.240;6.794;2023-06-24T05:25:43;101969.00;;;25.90
5571;BMP180;2808;51.240;6.794;2023-06-24T05:28:16;101976.00;;;26.20
5571;BMP180;2808;51.240;6.794;2023-06-24T05:30:46;101984.00;;;26.40
5571;BMP180;2808;51.240;6.794;2023-06-24T05:33:13;101980.00;;;26.90
5571;BMP180;2808;51.240;6.794;2023-06-24T05:35:42;101981.00;;;27.00
5571;BMP180;2808;51.240;6.794;2023-06-24T05:38:12;101986.00;;;27.40
5571;BMP180;2808;51.240;6.794;2023-06-24T05:40:40;101980.00;;;27.80
5571;BMP180;2808;51.240;6.794;2023-06-24T05:43:07;101983.00;;;28.10
5571;BMP180;2808;51.240;6.794;2023-06-24T05:45:34;101985.00;;;28.10
5571;BMP180;2808;51.240;6.794;2023-06-24T05:48:05;101993.00;;;28.20
5571;BMP180;2808;51.240;6.794;2023-06-24T05:50:33;101998.00;;;28.20
5571;BMP180;2808;51.240;6.794;2023-06-24T05:53:00;102001.00;;;27.70
5571;BMP180;2808;51.240;6.794;2023-06-24T05:55:28;101993.00;;;27.60
5571;BMP180;2808;51.240;6.794;2023-06-24T05:57:57;101996.00;;;27.90
5571;BMP180;2808;51.240;6.794;2023-06-24T06:00:34;101999.00;;;28.30
5571;BMP180;2808;51.240;6.794;2023-06-24T06:03:01;101995.00;;;28.10
5571;BMP180;2808;51.240;6.794;2023-06-24T06:05:30;102000.00;;;28.30
5571;BMP180;2808;51.240;6.794;2023-06-24T06:07:58;102007.00;;;28.60
5571;BMP180;2808;51.240;6.794;2023-06-24T06:10:25;102001.00;;;28.70
5571;BMP180;2808;51.240;6.794;2023-06-24T06:12:53;102006.00;;;28.60
5571;BMP180;2808;51.240;6.794;2023-06-24T06:15:20;102007.00;;;27.90
5571;BMP180;2808;51.240;6.794;2023-06-24T06:17:48;102007.00;;;26.90
5571;BMP180;2808;51.240;6.794;2023-06-24T06:20:16;102012.00;;;26.20
5571;BMP180;2808;51.240;6.794;2023-06-24T06:22:51;102007.00;;;26.60
5571;BMP180;2808;51.240;6.794;2023-06-24T06:25:18;102022.00;;;27.10
5571;BMP180;2808;51.240;6.794;2023-06-24T06:27:46;102021.00;;;27.60
5571;BMP180;2808;51.240;6.794;2023-06-24T06:30:14;102024.00;;;27.80
5571;BMP180;2808;51.240;6.794;2023-06-24T06:32:42;102030.00;;;28.00
5571;BMP180;2808;51.240;6.794;2023-06-24T06:35:09;102018.00;;;28.00
5571;BMP180;2808;51.240;6.794;2023-06-24T06:37:38;102027.00;;;28.10
5571;BMP180;2808;51.240;6.794;2023-06-24T06:40:08;102030.00;;;28.00
5571;BMP180;2808;51.240;6.794;2023-06-24T06:42:36;102026.00;;;27.90
5571;BMP180;2808;51.240;6.794;2023-06-24T06:45:21;102029.00;;;28.00
5571;BMP180;2808;51.240;6.794;2023-06-24T06:47:50;102038.00;;;27.90
5571;BMP180;2808;51.240;6.794;2023-06-24T06:50:17;102031.00;;;27.60
5571;BMP180;2808;51.240;6.794;2023-06-24T06:52:57;102044.00;;;27.40
5571;BMP180;2808;51.240;6.794;2023-06-24T06:55:27;102041.00;;;27.60
5571;BMP180;2808;51.240;6.794;2023-06-24T06:57:57;102038.00;;;27.50
5571;BMP180;2808;51.240;6.794;2023-06-24T07:00:24;102044.00;;;27.60
5571;BMP180;2808;51.240;6.794;2023-06-24T07:02:52;102038.00;;;27.60
5571;BMP180;2808;51.240;6.794;2023-06-24T07:05:19;102046.00;;;27.20
5571;BMP180;2808;51.240;6.794;2023-06-24T07:07:47;102053.00;;;27.10
5571;BMP180;2808;51.240;6.794;2023-06-24T07:10:16;102042.00;;;27.30
5571;BMP180;2808;51.240;6.794;2023-06-24T07:12:46;102051.00;;;27.60
5571;BMP180;2808;51.240;6.794;2023-06-24T07:15:13;102053.00;;;27.50
5571;BMP180;2808;51.240;6.794;2023-06-24T07:17:41;102048.00;;;27.60
5571;BMP180;2808;51.240;6.794;2023-06-24T07:20:10;102040.00;;;28.40
5571;BMP180;2808;51.240;6.794;2023-06-24T07:22:37;102056.00;;;29.10
5571;BMP180;2808;51.240;6.794;2023-06-24T07:25:05;102051.00;;;28.90
5571;BMP180;2808;51.240;6.794;2023-06-24T07:27:32;102052.00;;;28.80
5571;BMP180;2808;51.240;6.794;2023-06-24T07:30:01;102055.00;;;28.80
5571;BMP180;2808;51.240;6.794;2023-06-24T07:32:28;102052.00;;;28.90
5571;BMP180;2808;51.240;6.794;2023-06-24T07:34:56;102054.00;;;29.20
5571;BMP180;2808;51.240;6.794;2023-06-24T07:37:24;102059.00;;;29.50
5571;BMP180;2808;51.240;6.794;2023-06-24T07:39:52;102055.00;;;29.90
5571;BMP180;2808;51.240;6.794;2023-06-24T07:42:19;102055.00;;;29.50
5571;BMP180;2808;51.240;6.794;2023-06-24T07:44:47;102048.00;;;29.20
5571;BMP180;2808;51.240;6.794;2023-06-24T07:47:17;102058.00;;;28.50
5571;BMP180;2808;51.240;6.794;2023-06-24T07:49:44;102057.00;;;28.00
5571;BMP180;2808;51.240;6.794;2023-06-24T07:52:12;102059.00;;;28.10
5571;BMP180;2808;51.240;6.794;2023-06-24T07:54:40;102060.00;;;28.30
5571;BMP180;2808;51.240;6.794;2023-06-24T07:57:07;102062.00;;;28.90
5571;BMP180;2808;51.240;6.794;2023-06-24T07:59:35;102057.00;;;29.40
5571;BMP180;2808;51.240;6.794;2023-06-24T08:02:03;102056.00;;;29.60
5571;BMP180;2808;51.240;6.794;2023-06-24T08:04:31;102052.00;;;29.50
5571;BMP180;2808;51.240;6.794;2023-06-24T08:06:59;102058.00;;;29.50
5571;BMP180;2808;51.240;6.794;2023-06-24T08:09:26;102061.00;;;29.60
5571;BMP180;2808;51.240;6.794;2023-06-24T08:11:53;102060.00;;;29.60
5571;BMP180;2808;51.240;6.794;2023-06-24T08:14:21;102056.00;;;29.70
5571;BMP180;2808;51.240;6.794;2023-06-24T08:16:48;102063.00;;;29.60
5571;BMP180;2808;51.240;6.794;2023-06-24T08:19:18;102057.00;;;29.90
5571;BMP180;2808;51.240;6.794;2023-06-24T08:21:47;102056.00;;;30.10
5571;BMP180;2808;51.240;6.794;2023-06-24T08:24:14;102054.00;;;30.00
5571;BMP180;2808;51.240;6.794;2023-06-24T08:26:42;102053.00;;;29.90
5571;BMP180;2808;51.240;6.794;2023-06-24T08:29:09;102050.00;;;29.80
5571;BMP180;2808;51.240;6.794;2023-06-24T08:31:36;102051.00;;;29.90
5571;BMP180;2808;51.240;6.794;2023-06-24T08:34:04;102042.00;;;30.10
5571;BMP180;2808;51.240;6.794;2023-06-24T08:36:35;102053.00;;;30.20
5571;BMP180;2808;51.240;6.794;2023-06-24T08:39:04;102049.00;;;30.00
5571;BMP180;2808;51.240;6.794;2023-06-24T08:41:32;102047.00;;;29.90
5571;BMP180;2808;51.240;6.794;2023-06-24T08:43:59;102046.00;;;29.70
5571;BMP180;2808;51.240;6.794;2023-06-24T08:46:29;102034.00;;;29.40
5571;BMP180;2808;51.240;6.794;2023-06-24T08:49:06;102038.00;;;29.30
5571;BMP180;2808;51.240;6.794;2023-06-24T08:51:40;102036.00;;;29.40
5571;BMP180;2808;51.240;6.794;2023-06-24T08:54:10;102042.00;;;29.30
5571;BMP180;2808;51.240;6.794;2023-06-24T08:56:39;102027.00;;;29.60
5571;BMP180;2808;51.240;6.794;2023-06-24T08:59:09;102031.00;;;29.80
5571;BMP180;2808;51.240;6.794;2023-06-24T09:01:37;102027.00;;;29.80
5571;BMP180;2808;51.240;6.794;2023-06-24T09:04:05;102034.00;;;29.70
5571;BMP180;2808;51.240;6.794;2023-06-24T09:06:32;102038.00;;;29.60
5571;BMP180;2808;51.240;6.794;2023-06-24T09:09:00;102032.00;;;29.30
5571;BMP180;2808;51.240;6.794;2023-06-24T09:11:29;102037.00;;;29.00
5571;BMP180;2808;51.240;6.794;2023-06-24T09:13:58;102043.00;;;29.00
5571;BMP180;2808;51.240;6.794;2023-06-24T09:16:27;102032.00;;;28.90
5571;BMP180;2808;51.240;6.794;2023-06-24T09:18:56;102029.00;;;29.00
5571;BMP180;2808;51.240;6.794;2023-06-24T09:21:24;102028.00;;;29.20
5571;BMP180;2808;51.240;6.794;2023-06-24T09:23:53;102021.00;;;29.30
5571;BMP180;2808;51.240;6.794;2023-06-24T09:26:23;102028.00;;;29.30
5571;BMP180;2808;51.240;6.794;2023-06-24T09:28:52;102017.00;;;29.00
5571;BMP180;2808;51.240;6.794;2023-06-24T09:31:20;102016.00;;;28.70
5571;BMP180;2808;51.240;6.794;2023-06-24T09:33:49;102015.00;;;28.50
5571;BMP180;2808;51.240;6.794;2023-06-24T09:36:16;102016.00;;;28.80
5571;BMP180;2808;51.240;6.794;2023-06-24T09:38:44;102014.00;;;28.90
5571;BMP180;2808;51.240;6.794;2023-06-24T09:41:11;102013.00;;;29.10
5571;BMP180;2808;51.240;6.794;2023-06-24T09:43:42;102005.00;;;29.10
5571;BMP180;2808;51.240;6.794;2023-06-24T09:46:12;102005.00;;;29.10
5571;BMP180;2808;51.240;6.794;2023-06-24T09:48:41;102011.00;;;29.10
5571;BMP180;2808;51.240;6.794;2023-06-24T09:51:09;102002.00;;;29.00
5571;BMP180;2808;51.240;6.794;2023-06-24T09:53:39;101998.00;;;29.00
5571;BMP180;2808;51.240;6.794;2023-06-24T09:56:08;101995.00;;;28.80
5571;BMP180;2808;51.240;6.794;2023-06-24T09:58:37;101990.00;;;28.60
5571;BMP180;2808;51.240;6.794;2023-06-24T10:01:06;101987.00;;;28.50
5571;BMP180;2808;51.240;6.794;2023-06-24T10:03:36;101989.00;;;28.70
5571;BMP180;2808;51.240;6.794;2023-06-24T10:06:05;101986.00;;;28.80
5571;BMP180;2808;51.240;6.794;2023-06-24T10:08:34;101987.00;;;29.00
5571;BMP180;2808;51.240;6.794;2023-06-24T10:11:01;101988.00;;;28.80
5571;BMP180;2808;51.240;6.794;2023-06-24T10:13:29;101994.00;;;28.70
5571;BMP180;2808;51.240;6.794;2023-06-24T10:15:57;101980.00;;;28.50
5571;BMP180;2808;51.240;6.794;2023-06-24T10:18:36;101969.00;;;28.30
5571;BMP180;2808;51.240;6.794;2023-06-24T10:21:04;101971.00;;;28.30
5571;BMP180;2808;51.240;6.794;2023-06-24T10:23:38;101969.00;;;28.40
5571;BMP180;2808;51.240;6.794;2023-06-24T10:26:08;101962.00;;;28.40
5571;BMP180;2808;51.240;6.794;2023-06-24T10:29:08;101962.00;;;28.50
5571;BMP180;2808;51.240;6.794;2023-06-24T10:31:57;101964.00;;;28.20
5571;BMP180;2808;51.240;6.794;2023-06-24T10:34:34;101962.00;;;28.00
5571;BMP180;2808;51.240;6.794;2023-06-24T10:37:02;101951.00;;;27.90
5571;BMP180;2808;51.240;6.794;2023-06-24T10:39:38;101958.00;;;28.10
5571;BMP180;2808;51.240;6.794;2023-06-24T10:42:31;101947.00;;;28.30
5571;BMP180;2808;51.240;6.794;2023-06-24T10:45:00;101946.00;;;28.40
5571;BMP180;2808;51.240;6.794;2023-06-24T10:47:31;101953.00;;;28.50
5571;BMP180;2808;51.240;6.794;2023-06-24T10:50:00;101943.00;;;28.50
5571;BMP180;2808;51.240;6.794;2023-06-24T10:52:28;101939.00;;;28.50
5571;BMP180;2808;51.240;6.794;2023-06-24T10:54:57;101927.00;;;28.50
5571;BMP180;2808;51.240;6.794;2023-06-24T10:57:26;101928.00;;;28.30
5571;BMP180;2808;51.240;6.794;2023-06-24T10:59:55;101934.00;;;28.20
5571;BMP180;2808;51.240;6.794;2023-06-24T11:02:23;101925.00;;;28.10
5571;BMP180;2808;51.240;6.794;2023-06-24T11:04:51;101928.00;;;28.10
5571;BMP180;2808;51.240;6.794;2023-06-24T11:07:22;101922.00;;;28.20
5571;BMP180;2808;51.240;6.794;2023-06-24T11:09:51;101924.00;;;28.20
5571;BMP180;2808;51.240;6.794;2023-06-24T11:12:18;101926.00;;;28.20
5571;BMP180;2808;51.240;6.794;2023-06-24T11:14:46;101921.00;;;28.10
5571;BMP180;2808;51.240;6.794;2023-06-24T11:17:14;101925.00;;;28.10
5571;BMP180;2808;51.240;6.794;2023-06-24T11:19:41;101910.00;;;28.10
5571;BMP180;2808;51.240;6.794;2023-06-24T11:22:10;101912.00;;;28.10
5571;BMP180;2808;51.240;6.794;2023-06-24T11:24:42;101902.00;;;28.10
5571;BMP180;2808;51.240;6.794;2023-06-24T11:27:09;101914.00;;;28.20
5571;BMP180;2808;51.240;6.794;2023-06-24T11:29:37;101906.00;;;28.10
5571;BMP180;2808;51.240;6.794;2023-06-24T11:32:08;101917.00;;;28.10
5571;BMP180;2808;51.240;6.794;2023-06-24T11:34:36;101913.00;;;28.20
5571;BMP180;2808;51.240;6.794;2023-06-24T11:37:12;101911.00;;;28.10
5571;BMP180;2808;51.240;6.794;2023-06-24T11:39:41;101907.00;;;28.10
5571;BMP180;2808;51.240;6.794;2023-06-24T11:42:09;101909.00;;;27.90
5571;BMP180;2808;51.240;6.794;2023-06-24T11:44:40;101911.00;;;27.90
5571;BMP180;2808;51.240;6.794;2023-06-24T11:47:09;101911.00;;;28.00
5571;BMP180;2808;51.240;6.794;2023-06-24T11:49:49;101910.00;;;28.00
5571;BMP180;2808;51.240;6.794;2023-06-24T11:52:17;101909.00;;;27.90
5571;BMP180;2808;51.240;6.794;2023-06-24T11:54:53;101902.00;;;27.90
5571;BMP180;2808;51.240;6.794;2023-06-24T11:57:20;101903.00;;;27.80
5571;BMP180;2808;51.240;6.794;2023-06-24T11:59:52;101900.00;;;27.90
5571;BMP180;2808;51.240;6.794;2023-06-24T12:02:20;101902.00;;;27.70
5571;BMP180;2808;51.240;6.794;2023-06-24T12:04:48;101892.00;;;27.80
5571;BMP180;2808;51.240;6.794;2023-06-24T12:07:16;101900.00;;;27.80
5571;BMP180;2808;51.240;6.794;2023-06-24T12:09:43;101889.00;;;27.70
5571;BMP180;2808;51.240;6.794;2023-06-24T12:12:13;101891.00;;;27.70
5571;BMP180;2808;51.240;6.794;2023-06-24T12:14:41;101896.00;;;27.70
5571;BMP180;2808;51.240;6.794;2023-06-24T12:17:09;101884.00;;;27.80
5571;BMP180;2808;51.240;6.794;2023-06-24T12:19:37;101888.00;;;27.70
5571;BMP180;2808;51.240;6.794;2023-06-24T12:22:04;101880.00;;;27.80
5571;BMP180;2808;51.240;6.794;2023-06-24T12:24:31;101888.00;;;27.90
5571;BMP180;2808;51.240;6.794;2023-06-24T12:26:59;101879.00;;;27.90
5571;BMP180;2808;51.240;6.794;2023-06-24T12:29:28;101881.00;;;28.00
5571;BMP180;2808;51.240;6.794;2023-06-24T12:32:03;101875.00;;;28.00
5571;BMP180;2808;51.240;6.794;2023-06-24T12:34:31;101875.00;;;27.90
5571;BMP180;2808;51.240;6.794;2023-06-24T12:36:59;101877.00;;;27.90
5571;BMP180;2808;51.240;6.794;2023-06-24T12:39:26;101869.00;;;28.00
5571;BMP180;2808;51.240;6.794;2023-06-24T12:41:53;101863.00;;;27.90
5571;BMP180;2808;51.240;6.794;2023-06-24T12:44:21;101877.00;;;27.90
5571;BMP180;2808;51.240;6.794;2023-06-24T12:46:50;101869.00;;;27.90
5571;BMP180;2808;51.240;6.794;2023-06-24T12:49:17;101873.00;;;27.90
5571;BMP180;2808;51.240;6.794;2023-06-24T12:51:45;101871.00;;;27.90
5571;BMP180;2808;51.240;6.794;2023-06-24T12:54:12;101858.00;;;27.80
5571;BMP180;2808;51.240;6.794;2023-06-24T12:56:42;101851.00;;;27.70
5571;BMP180;2808;51.240;6.794;2023-06-24T12:59:10;101858.00;;;27.60
5571;BMP180;2808;51.240;6.794;2023-06-24T13:01:37;101856.00;;;27.70
5571;BMP180;2808;51.240;6.794;2023-06-24T13:04:09;101848.00;;;27.70
5571;BMP180;2808;51.240;6.794;2023-06-24T13:06:36;101858.00;;;27.70
5571;BMP180;2808;51.240;6.794;2023-06-24T13:09:04;101849.00;;;27.70
5571;BMP180;2808;51.240;6.794;2023-06-24T13:11:34;101857.00;;;27.80
5571;BMP180;2808;51.240;6.794;2023-06-24T13:14:03;101852.00;;;27.80
5571;BMP180;2808;51.240;6.794;2023-06-24T13:16:35;101853.00;;;27.90
5571;BMP180;2808;51.240;6.794;2023-06-24T13:19:04;101860.00;;;28.00
5571;BMP180;2808;51.240;6.794;2023-06-24T13:21:33;101852.00;;;28.00
5571;BMP180;2808;51.240;6.794;2023-06-24T13:24:00;101861.00;;;27.70
5571;BMP180;2808;51.240;6.794;2023-06-24T13:26:29;101852.00;;;27.80
5571;BMP180;2808;51.240;6.794;2023-06-24T13:28:58;101844.00;;;27.80
5571;BMP180;2808;51.240;6.794;2023-06-24T13:31:25;101846.00;;;27.80
5571;BMP180;2808;51.240;6.794;2023-06-24T13:33:53;101841.00;;;27.80
5571;BMP180;2808;51.240;6.794;2023-06-24T13:36:36;101839.00;;;27.70
5571;BMP180;2808;51.240;6.794;2023-06-24T13:39:05;101844.00;;;27.80
5571;BMP180;2808;51.240;6.794;2023-06-24T13:41:37;101839.00;;;27.90
5571;BMP180;2808;51.240;6.794;2023-06-24T13:44:05;101843.00;;;27.90
5571;BMP180;2808;51.240;6.794;2023-06-24T13:46:33;101836.00;;;28.00
5571;BMP180;2808;51.240;6.794;2023-06-24T13:49:01;101836.00;;;27.90
5571;BMP180;2808;51.240;6.794;2023-06-24T13:51:29;101835.00;;;27.80
5571;BMP180;2808;51.240;6.794;2023-06-24T13:53:58;101828.00;;;27.80
5571;BMP180;2808;51.240;6.794;2023-06-24T13:56:26;101834.00;;;27.70
5571;BMP180;2808;51.240;6.794;2023-06-24T13:58:58;101830.00;;;27.80
5571;BMP180;2808;51.240;6.794;2023-06-24T14:01:26;101819.00;;;27.70
5571;BMP180;2808;51.240;6.794;2023-06-24T14:03:55;101822.00;;;27.70
5571;BMP180;2808;51.240;6.794;2023-06-24T14:06:23;101820.00;;;27.70
5571;BMP180;2808;51.240;6.794;2023-06-24T14:08:51;101820.00;;;27.70
5571;BMP180;2808;51.240;6.794;2023-06-24T14:11:20;101821.00;;;27.60
5571;BMP180;2808;51.240;6.794;2023-06-24T14:13:48;101821.00;;;27.50
5571;BMP180;2808;51.240;6.794;2023-06-24T14:16:18;101823.00;;;27.50
5571;BMP180;2808;51.240;6.794;2023-06-24T14:18:46;101810.00;;;27.50
5571;BMP180;2808;51.240;6.794;2023-06-24T14:21:14;101811.00;;;27.60
5571;BMP180;2808;51.240;6.794;2023-06-24T14:23:41;101811.00;;;27.60
5571;BMP180;2808;51.240;6.794;2023-06-24T14:26:12;101813.00;;;27.60
5571;BMP180;2808;51.240;6.794;2023-06-24T14:28:41;101809.00;;;27.60
5571;BMP180;2808;51.240;6.794;2023-06-24T14:31:09;101814.00;;;27.60
5571;BMP180;2808;51.240;6.794;2023-06-24T14:33:39;101813.00;;;27.60